createdAt,value
2022-11-19T00:02:10.139Z,-1.32
2022-11-19T00:04:37.499Z,-1.28
2022-11-19T00:07:05.981Z,-1.29
2022-11-19T00:09:34.545Z,-1.34
2022-11-19T00:12:20.504Z,-1.28
2022-11-19T00:14:48.897Z,-1.33
2022-11-19T00:17:16.305Z,-1.28
2022-11-19T00:19:43.658Z,-1.33
2022-11-19T00:22:11.787Z,-1.34
2022-11-19T00:24:42.147Z,-1.29
2022-11-19T00:27:10.978Z,-1.32
2022-11-19T00:29:39.701Z,-1.29
2022-11-19T00:32:08.199Z,-1.34
2022-11-19T00:34:35.545Z,-1.29
2022-11-19T00:37:03.100Z,-1.28
2022-11-19T00:39:30.431Z,-1.20
2022-11-19T00:41:58.146Z,-1.22
2022-11-19T00:44:33.943Z,-1.25
2022-11-19T00:47:05.018Z,-1.22
2022-11-19T00:49:33.307Z,-1.25
2022-11-19T00:52:00.705Z,-1.32
2022-11-19T00:54:28.241Z,-1.28
2022-11-19T00:56:55.758Z,-1.25
2022-11-19T00:59:22.866Z,-1.27
2022-11-19T01:01:51.667Z,-1.28
2022-11-19T01:04:20.038Z,-1.34
2022-11-19T01:06:49.467Z,-1.34
2022-11-19T01:09:17.246Z,-1.32
2022-11-19T01:11:44.907Z,-1.30
2022-11-19T01:14:12.706Z,-1.26
2022-11-19T01:16:41.738Z,-1.30
2022-11-19T01:19:11.547Z,-1.31
2022-11-19T01:21:39.181Z,-1.33
2022-11-19T01:24:07.107Z,-1.38
2022-11-19T01:26:34.834Z,-1.42
2022-11-19T01:29:03.421Z,-1.41
2022-11-19T01:31:31.158Z,-1.37
2022-11-19T01:34:01.338Z,-1.37
2022-11-19T01:36:30.190Z,-1.45
2022-11-19T01:38:58.886Z,-1.43
2022-11-19T01:41:33.380Z,-1.40
2022-11-19T01:44:06.658Z,-1.40
2022-11-19T01:46:35.551Z,-1.52
2022-11-19T01:49:10.989Z,-1.52
2022-11-19T01:51:48.066Z,-1.54
2022-11-19T01:54:43.418Z,-1.51
2022-11-19T01:57:14.713Z,-1.54
2022-11-19T01:59:43.785Z,-1.54
2022-11-19T02:02:13.079Z,-1.48
2022-11-19T02:04:41.306Z,-1.45
2022-11-19T02:07:12.145Z,-1.43
2022-11-19T02:09:41.522Z,-1.50
2022-11-19T02:12:50.589Z,-1.51
2022-11-19T02:15:29.547Z,-1.46
2022-11-19T02:18:30.258Z,-1.53
2022-11-19T02:21:40.819Z,-1.49
2022-11-19T02:24:44.746Z,-1.47
2022-11-19T02:27:29.235Z,-1.44
2022-11-19T02:30:21.283Z,-1.43
2022-11-19T02:32:59.178Z,-1.45
2022-11-19T02:35:50.077Z,-1.43
2022-11-19T02:38:41.867Z,-1.43
2022-11-19T02:41:37.981Z,-1.45
2022-11-19T02:45:19.147Z,-1.51
2022-11-19T02:48:00.906Z,-1.58
2022-11-19T02:50:42.079Z,-1.52
2022-11-19T02:53:11.189Z,-1.49
2022-11-19T02:55:39.859Z,-1.52
2022-11-19T02:58:37.468Z,-1.53
2022-11-19T03:01:26.833Z,-1.52
2022-11-19T03:04:14.867Z,-1.53
2022-11-19T03:06:42.140Z,-1.48
2022-11-19T03:09:09.834Z,-1.46
2022-11-19T03:11:37.147Z,-1.48
2022-11-19T03:14:48.619Z,-1.58
2022-11-19T03:17:32.388Z,-1.57
2022-11-19T03:20:15.500Z,-1.55
2022-11-19T03:22:58.638Z,-1.59
2022-11-19T03:25:28.067Z,-1.59
2022-11-19T03:28:02.355Z,-1.57
2022-11-19T03:30:31.763Z,-1.60
2022-11-19T03:33:07.146Z,-1.62
2022-11-19T03:35:43.738Z,-1.60
2022-11-19T03:38:17.178Z,-1.62
2022-11-19T03:40:53.058Z,-1.64
2022-11-19T03:43:24.699Z,-1.67
2022-11-19T03:45:54.706Z,-1.64
2022-11-19T03:48:23.786Z,-1.65
2022-11-19T03:50:56.946Z,-1.67
2022-11-19T03:53:24.786Z,-1.66
2022-11-19T03:56:07.268Z,-1.60
2022-11-19T03:58:42.920Z,-1.57
2022-11-19T04:01:16.662Z,-1.60
2022-11-19T04:04:03.679Z,-1.60
2022-11-19T04:06:31.206Z,-1.69
2022-11-19T04:08:58.688Z,-1.65
2022-11-19T04:13:51.999Z,-1.69
2022-11-19T04:16:19.479Z,-1.68
2022-11-19T04:18:47.018Z,-1.69
2022-11-19T04:21:14.458Z,-1.75
2022-11-19T04:23:45.058Z,-1.78
2022-11-19T04:26:18.658Z,-1.76
2022-11-19T04:28:45.938Z,-1.68
2022-11-19T04:31:17.653Z,-1.66
2022-11-19T04:33:45.580Z,-1.65
2022-11-19T04:36:12.939Z,-1.71
2022-11-19T04:38:40.387Z,-1.65
2022-11-19T04:41:08.980Z,-1.63
2022-11-19T04:43:36.339Z,-1.57
2022-11-19T04:46:04.937Z,-1.62
2022-11-19T04:48:32.266Z,-1.73
2022-11-19T04:50:59.699Z,-1.62
2022-11-19T04:53:28.258Z,-1.61
2022-11-19T04:55:55.657Z,-1.59
2022-11-19T04:58:23.219Z,-1.60
2022-11-19T05:00:51.666Z,-1.59
2022-11-19T05:03:19.111Z,-1.58
2022-11-19T05:05:47.660Z,-1.61
2022-11-19T05:08:14.986Z,-1.66
2022-11-19T05:10:44.786Z,-1.66
2022-11-19T05:13:13.347Z,-1.58
2022-11-19T05:15:40.499Z,-1.61
2022-11-19T05:18:08.987Z,-1.58
2022-11-19T05:20:36.467Z,-1.58
2022-11-19T05:23:03.867Z,-1.58
2022-11-19T05:25:32.384Z,-1.63
2022-11-19T05:28:01.947Z,-1.69
2022-11-19T05:30:29.418Z,-1.69
2022-11-19T05:32:58.786Z,-1.68
2022-11-19T05:35:26.298Z,-1.69
2022-11-19T05:37:55.700Z,-1.64
2022-11-19T05:40:23.498Z,-1.61
2022-11-19T05:42:51.738Z,-1.60
2022-11-19T05:45:20.226Z,-1.71
2022-11-19T05:47:48.927Z,-1.75
2022-11-19T05:50:17.698Z,-1.71
2022-11-19T05:52:46.419Z,-1.73
2022-11-19T05:55:21.156Z,-1.66
2022-11-19T05:57:48.988Z,-1.70
2022-11-19T06:00:18.460Z,-1.80
2022-11-19T06:02:45.800Z,-1.81
2022-11-19T06:05:13.099Z,-1.93
2022-11-19T06:07:40.669Z,-2.06
2022-11-19T06:10:14.778Z,-2.01
2022-11-19T06:12:45.933Z,-1.96
2022-11-19T06:15:15.298Z,-1.95
2022-11-19T06:17:43.817Z,-1.93
2022-11-19T06:20:11.579Z,-1.96
2022-11-19T06:22:40.386Z,-1.93
2022-11-19T06:25:08.271Z,-1.94
2022-11-19T06:27:35.739Z,-1.92
2022-11-19T06:30:03.629Z,-1.91
2022-11-19T06:32:30.991Z,-1.90
2022-11-19T06:34:58.502Z,-1.92
2022-11-19T06:37:26.018Z,-2.04
2022-11-19T06:39:54.547Z,-2.09
2022-11-19T06:42:37.720Z,-2.14
2022-11-19T06:45:11.418Z,-2.25
2022-11-19T06:47:40.498Z,-2.25
2022-11-19T06:50:10.629Z,-2.28
2022-11-19T06:52:38.037Z,-2.26
2022-11-19T06:55:06.831Z,-2.30
2022-11-19T06:57:34.259Z,-2.41
2022-11-19T07:00:08.419Z,-2.57
2022-11-19T07:02:35.859Z,-2.49
2022-11-19T07:05:02.861Z,-2.50
2022-11-19T07:07:30.439Z,-2.49
2022-11-19T07:09:58.779Z,-2.46
2022-11-19T07:12:27.669Z,-2.48
2022-11-19T07:14:59.736Z,-2.36
2022-11-19T07:17:31.308Z,-2.57
2022-11-19T07:19:58.819Z,-2.52
2022-11-19T07:22:38.538Z,-2.60
2022-11-19T07:25:06.507Z,-2.52
2022-11-19T07:27:34.019Z,-2.53
2022-11-19T07:30:04.506Z,-2.49
2022-11-19T07:32:33.261Z,-2.39
2022-11-19T07:35:02.667Z,-2.30
2022-11-19T07:37:29.907Z,-2.20
2022-11-19T07:39:57.458Z,-2.07
2022-11-19T07:42:43.623Z,-1.89
2022-11-19T07:45:22.304Z,-1.71
2022-11-19T07:47:50.019Z,-1.60
2022-11-19T07:50:18.210Z,-1.59
2022-11-19T07:52:45.579Z,-1.56
2022-11-19T07:55:12.906Z,-1.46
2022-11-19T07:57:40.403Z,-1.43
2022-11-19T08:00:08.907Z,-1.28
2022-11-19T08:02:37.107Z,-1.16
2022-11-19T08:05:13.059Z,-1.42
2022-11-19T08:07:41.818Z,-1.51
2022-11-19T08:10:10.741Z,-1.26
2022-11-19T08:12:38.103Z,-1.04
2022-11-19T08:15:05.993Z,-0.81
2022-11-19T08:17:52.106Z,-0.66
2022-11-19T08:20:20.760Z,-0.55
2022-11-19T08:22:49.219Z,-0.50
2022-11-19T08:25:16.778Z,-0.50
2022-11-19T08:27:50.259Z,-0.43
2022-11-19T08:30:17.498Z,-0.29
2022-11-19T08:32:44.667Z,-0.09
2022-11-19T08:35:11.739Z,0.52
2022-11-19T08:37:39.107Z,1.80
2022-11-19T08:40:07.029Z,3.36
2022-11-19T08:42:52.942Z,4.80
2022-11-19T08:45:22.538Z,5.91
2022-11-19T08:47:49.867Z,6.24
2022-11-19T08:50:17.386Z,7.08
2022-11-19T08:52:44.758Z,7.81
2022-11-19T08:55:11.728Z,8.08
2022-11-19T08:57:40.166Z,7.80
2022-11-19T09:00:08.320Z,8.02
2022-11-19T09:02:35.759Z,8.26
2022-11-19T09:05:03.158Z,8.08
2022-11-19T09:07:31.584Z,8.02
2022-11-19T09:09:58.686Z,8.39
2022-11-19T09:12:25.730Z,8.11
2022-11-19T09:14:52.877Z,8.45
2022-11-19T09:17:20.398Z,9.30
2022-11-19T09:19:48.441Z,8.52
2022-11-19T09:22:15.798Z,8.21
2022-11-19T09:24:42.838Z,7.39
2022-11-19T09:27:10.209Z,7.00
2022-11-19T09:29:37.647Z,7.36
2022-11-19T09:32:05.126Z,6.25
2022-11-19T09:34:32.638Z,5.54
2022-11-19T09:37:00.126Z,4.69
2022-11-19T09:39:27.519Z,4.12
2022-11-19T09:42:11.799Z,3.78
2022-11-19T09:45:00.959Z,2.53
2022-11-19T09:47:46.280Z,1.91
2022-11-19T09:50:31.606Z,1.80
2022-11-19T09:53:02.918Z,1.57
2022-11-19T09:55:35.085Z,1.38
2022-11-19T09:58:06.416Z,1.34
2022-11-19T10:00:34.728Z,1.38
2022-11-19T10:03:11.752Z,1.39
2022-11-19T10:06:07.038Z,1.36
2022-11-19T10:08:55.850Z,1.29
2022-11-19T10:11:38.012Z,1.21
2022-11-19T10:14:28.002Z,1.21
2022-11-19T10:17:04.641Z,0.96
2022-11-19T10:20:04.280Z,0.59
2022-11-19T10:22:40.286Z,0.47
2022-11-19T10:25:23.477Z,0.24
2022-11-19T10:27:57.598Z,-0.09
2022-11-19T10:30:27.285Z,-0.07
2022-11-19T10:33:01.922Z,-0.35
2022-11-19T10:35:36.330Z,-0.35
2022-11-19T10:38:07.958Z,-0.08
2022-11-19T10:41:14.492Z,-0.12
2022-11-19T10:44:07.798Z,-0.25
2022-11-19T10:46:37.037Z,-0.50
2022-11-19T10:49:11.048Z,-0.40
2022-11-19T10:51:41.765Z,-0.28
2022-11-19T10:54:30.694Z,-0.65
2022-11-19T10:57:00.757Z,-0.58
2022-11-19T10:59:33.240Z,-0.73
2022-11-19T11:02:46.046Z,-1.02
2022-11-19T11:05:17.077Z,-0.89
2022-11-19T11:07:54.530Z,-0.91
2022-11-19T11:10:31.404Z,-0.92
2022-11-19T11:13:25.278Z,-1.03
2022-11-19T11:15:54.523Z,-1.07
2022-11-19T11:18:27.729Z,-1.11
2022-11-19T11:21:00.742Z,-0.82
2022-11-19T11:23:33.572Z,-0.88
2022-11-19T11:26:10.959Z,-0.58
2022-11-19T11:28:58.486Z,-0.50
2022-11-19T11:31:39.807Z,-0.74
2022-11-19T11:34:36.038Z,-0.74
2022-11-19T11:37:10.557Z,-0.75
2022-11-19T11:39:46.602Z,-0.76
2022-11-19T11:42:21.958Z,-0.60
2022-11-19T11:44:59.758Z,-0.57
2022-11-19T11:47:33.848Z,-0.45
2022-11-19T11:50:21.918Z,-0.49
2022-11-19T11:52:54.841Z,-0.73
2022-11-19T11:55:26.000Z,-0.88
2022-11-19T11:58:05.171Z,-0.57
2022-11-19T12:00:46.958Z,-0.37
2022-11-19T12:03:22.730Z,-0.22
2022-11-19T12:06:19.358Z,-0.25
2022-11-19T12:09:16.304Z,-0.37
2022-11-19T12:12:26.471Z,-0.63
2022-11-19T12:15:27.066Z,-0.71
2022-11-19T12:18:22.858Z,-0.59
2022-11-19T12:21:48.782Z,-0.41
2022-11-19T12:24:34.899Z,-0.59
2022-11-19T12:27:05.227Z,-0.51
2022-11-19T12:29:53.433Z,-0.53
2022-11-19T12:32:50.039Z,-0.34
2022-11-19T12:35:31.881Z,-0.33
2022-11-19T12:38:26.257Z,-0.31
2022-11-19T12:41:08.238Z,-0.30
2022-11-19T12:43:51.758Z,-0.45
2022-11-19T12:46:39.317Z,-0.52
2022-11-19T12:49:23.778Z,-0.32
2022-11-19T12:52:28.824Z,-0.47
2022-11-19T12:55:15.083Z,-0.41
2022-11-19T12:58:01.932Z,-0.39
2022-11-19T13:00:40.812Z,-0.36
2022-11-19T13:03:21.879Z,-0.51
2022-11-19T13:06:26.118Z,-0.70
2022-11-19T13:09:07.638Z,-0.55
2022-11-19T13:11:45.839Z,-0.60
2022-11-19T13:14:41.878Z,-0.60
2022-11-19T13:17:20.478Z,-0.73
2022-11-19T13:19:54.166Z,-0.52
2022-11-19T13:22:34.295Z,-0.64
2022-11-19T13:25:50.198Z,-0.71
2022-11-19T13:28:36.361Z,-0.47
2022-11-19T13:31:13.797Z,-0.37
2022-11-19T13:33:50.398Z,-0.18
2022-11-19T13:36:44.758Z,-0.26
2022-11-19T13:39:23.231Z,-0.01
2022-11-19T13:42:12.247Z,-0.41
2022-11-19T13:44:46.157Z,-0.66
2022-11-19T13:47:34.844Z,-0.87
2022-11-19T13:50:12.206Z,-0.83
2022-11-19T13:52:46.920Z,-0.78
2022-11-19T13:55:35.479Z,-0.63
2022-11-19T13:58:27.238Z,-0.46
2022-11-19T14:01:10.140Z,-0.47
2022-11-19T14:04:04.531Z,-0.39
2022-11-19T14:06:56.283Z,0.12
2022-11-19T14:09:36.838Z,0.22
2022-11-19T14:12:29.367Z,0.78
2022-11-19T14:15:51.879Z,0.76
2022-11-19T14:18:48.966Z,0.74
2022-11-19T14:21:43.233Z,0.72
2022-11-19T14:24:45.320Z,0.46
2022-11-19T14:27:18.718Z,0.06
2022-11-19T14:29:46.687Z,-0.13
2022-11-19T14:32:13.840Z,-0.21
2022-11-19T14:35:09.958Z,0.08
2022-11-19T14:37:56.118Z,-0.10
2022-11-19T14:40:31.159Z,-0.23
2022-11-19T14:43:20.424Z,-0.57
2022-11-19T14:46:14.318Z,-0.91
2022-11-19T14:48:42.478Z,-1.00
2022-11-19T14:51:15.367Z,-1.16
2022-11-19T14:53:56.131Z,-1.34
2022-11-19T14:56:27.608Z,-1.43
2022-11-19T14:59:10.337Z,-1.51
2022-11-19T15:02:07.491Z,-1.65
2022-11-19T15:04:44.899Z,-1.65
2022-11-19T15:07:35.462Z,-1.67
2022-11-19T15:10:11.599Z,-1.75
2022-11-19T15:13:04.299Z,-1.84
2022-11-19T15:15:39.968Z,-1.80
2022-11-19T15:18:54.007Z,-1.83
2022-11-19T15:21:30.358Z,-1.96
2022-11-19T15:24:25.998Z,-1.95
2022-11-19T15:27:25.718Z,-2.11
2022-11-19T15:30:20.609Z,-2.10
2022-11-19T15:33:13.851Z,-2.19
2022-11-19T15:36:00.326Z,-2.15
2022-11-19T15:38:42.878Z,-2.11
2022-11-19T15:41:17.646Z,-2.20
2022-11-19T15:43:52.077Z,-2.18
2022-11-19T15:46:30.592Z,-2.35
2022-11-19T15:49:19.052Z,-2.51
2022-11-19T15:52:00.238Z,-2.44
2022-11-19T15:54:30.078Z,-2.47
2022-11-19T15:57:23.978Z,-2.55
2022-11-19T16:00:03.889Z,-2.55
2022-11-19T16:02:35.280Z,-2.60
2022-11-19T16:05:06.177Z,-2.46
2022-11-19T16:07:36.173Z,-2.44
2022-11-19T16:10:08.216Z,-2.61
2022-11-19T16:13:15.461Z,-2.69
2022-11-19T16:16:18.959Z,-2.82
2022-11-19T16:18:52.927Z,-2.83
2022-11-19T16:21:27.248Z,-2.86
2022-11-19T16:24:17.358Z,-2.92
2022-11-19T16:26:45.368Z,-2.94
2022-11-19T16:29:36.518Z,-3.08
2022-11-19T16:32:09.440Z,-3.07
2022-11-19T16:34:39.519Z,-3.05
2022-11-19T16:37:07.172Z,-3.09
2022-11-19T16:39:34.927Z,-3.18
2022-11-19T16:42:18.007Z,-3.20
2022-11-19T16:44:54.407Z,-3.23
2022-11-19T16:47:40.559Z,-3.30
2022-11-19T16:50:42.385Z,-3.29
2022-11-19T16:53:47.250Z,-3.37
2022-11-19T16:56:17.038Z,-3.38
2022-11-19T16:58:46.878Z,-3.39
2022-11-19T17:01:18.404Z,-3.51
2022-11-19T17:03:46.019Z,-3.50
2022-11-19T17:06:26.085Z,-3.54
2022-11-19T17:09:01.329Z,-3.55
2022-11-19T17:12:10.409Z,-3.53
2022-11-19T17:14:47.330Z,-3.58
2022-11-19T17:17:35.580Z,-3.59
2022-11-19T17:20:24.286Z,-3.57
2022-11-19T17:22:51.930Z,-3.62
2022-11-19T17:25:20.159Z,-3.60
2022-11-19T17:27:53.608Z,-3.55
2022-11-19T17:30:31.517Z,-3.51
2022-11-19T17:33:05.686Z,-3.51
2022-11-19T17:35:52.000Z,-3.50
2022-11-19T17:38:31.598Z,-3.47
2022-11-19T17:41:01.007Z,-3.52
2022-11-19T17:43:53.519Z,-3.57
2022-11-19T17:46:24.401Z,-3.60
2022-11-19T17:48:53.650Z,-3.58
2022-11-19T17:51:23.638Z,-3.58
2022-11-19T17:53:52.738Z,-3.59
2022-11-19T17:56:27.359Z,-3.63
2022-11-19T17:58:56.159Z,-3.63
2022-11-19T18:01:23.973Z,-3.67
2022-11-19T18:03:51.606Z,-3.71
2022-11-19T18:06:20.059Z,-3.67
2022-11-19T18:08:50.967Z,-3.68
2022-11-19T18:11:22.847Z,-3.68
2022-11-19T18:13:56.009Z,-3.68
2022-11-19T18:16:27.439Z,-3.68
2022-11-19T18:18:57.399Z,-3.73
2022-11-19T18:21:29.199Z,-3.76
2022-11-19T18:24:00.572Z,-3.79
2022-11-19T18:26:38.694Z,-3.75
2022-11-19T18:29:09.367Z,-3.78
2022-11-19T18:31:45.526Z,-3.86
2022-11-19T18:34:25.463Z,-3.82
2022-11-19T18:36:55.130Z,-3.89
2022-11-19T18:39:25.419Z,-3.84
2022-11-19T18:41:55.278Z,-3.78
2022-11-19T18:44:35.240Z,-3.76
2022-11-19T18:47:12.397Z,-3.87
2022-11-19T18:49:42.708Z,-3.99
2022-11-19T18:52:15.841Z,-4.01
2022-11-19T18:54:46.047Z,-3.99
2022-11-19T18:57:14.149Z,-4.20
2022-11-19T18:59:42.367Z,-4.41
2022-11-19T19:02:13.041Z,-4.20
2022-11-19T19:04:48.332Z,-4.38
2022-11-19T19:07:22.218Z,-4.15
2022-11-19T19:09:52.888Z,-4.15
2022-11-19T19:12:21.960Z,-4.11
2022-11-19T19:14:56.663Z,-4.22
2022-11-19T19:17:26.306Z,-4.38
2022-11-19T19:19:58.540Z,-4.54
2022-11-19T19:22:32.121Z,-4.48
2022-11-19T19:25:02.728Z,-4.60
2022-11-19T19:27:38.807Z,-4.57
2022-11-19T19:30:06.839Z,-4.51
2022-11-19T19:32:40.410Z,-4.70
2022-11-19T19:35:08.158Z,-4.50
2022-11-19T19:37:43.318Z,-4.51
2022-11-19T19:40:11.968Z,-4.71
2022-11-19T19:42:41.409Z,-4.50
2022-11-19T19:45:10.698Z,-4.43
2022-11-19T19:47:37.959Z,-4.61
2022-11-19T19:50:06.046Z,-4.82
2022-11-19T19:52:33.727Z,-4.70
2022-11-19T19:55:03.061Z,-4.61
2022-11-19T19:57:31.366Z,-4.54
2022-11-19T20:00:01.721Z,-4.67
2022-11-19T20:02:30.958Z,-4.56
2022-11-19T20:05:00.598Z,-4.54
2022-11-19T20:07:33.059Z,-4.43
2022-11-19T20:10:07.888Z,-4.76
2022-11-19T20:12:54.808Z,-4.79
2022-11-19T20:15:30.376Z,-4.81
2022-11-19T20:18:00.415Z,-4.84
2022-11-19T20:20:28.695Z,-5.04
2022-11-19T20:22:59.998Z,-5.14
2022-11-19T20:25:30.702Z,-4.97
2022-11-19T20:28:01.357Z,-4.76
2022-11-19T20:30:33.215Z,-4.82
2022-11-19T20:33:04.738Z,-4.96
2022-11-19T20:35:37.358Z,-5.04
2022-11-19T20:38:08.423Z,-4.73
2022-11-19T20:40:39.849Z,-4.91
2022-11-19T20:43:31.641Z,-4.90
2022-11-19T20:46:13.038Z,-4.98
2022-11-19T20:48:44.135Z,-5.14
2022-11-19T20:51:15.058Z,-5.32
2022-11-19T20:53:46.059Z,-5.18
2022-11-19T20:56:17.865Z,-5.37
2022-11-19T20:58:48.480Z,-5.47
2022-11-19T21:01:16.526Z,-5.46
2022-11-19T21:03:46.247Z,-5.41
2022-11-19T21:06:14.805Z,-5.47
2022-11-19T21:08:42.399Z,-5.54
2022-11-19T21:11:12.448Z,-5.54
2022-11-19T21:13:40.957Z,-5.55
2022-11-19T21:16:20.071Z,-5.54
2022-11-19T21:18:47.958Z,-5.25
2022-11-19T21:21:17.038Z,-5.00
2022-11-19T21:23:46.597Z,-4.99
2022-11-19T21:26:14.618Z,-5.12
2022-11-19T21:28:44.801Z,-5.22
2022-11-19T21:31:16.365Z,-5.43
2022-11-19T21:33:49.975Z,-5.52
2022-11-19T21:36:17.838Z,-5.79
2022-11-19T21:38:45.277Z,-5.81
2022-11-19T21:41:13.047Z,-5.85
2022-11-19T21:43:41.168Z,-6.01
2022-11-19T21:46:08.767Z,-6.02
2022-11-19T21:48:39.363Z,-6.10
2022-11-19T21:51:09.079Z,-6.10
2022-11-19T21:53:36.687Z,-6.06
2022-11-19T21:56:04.409Z,-6.06
2022-11-19T21:58:31.798Z,-6.16
2022-11-19T22:01:04.601Z,-6.13
2022-11-19T22:03:33.569Z,-6.00
2022-11-19T22:06:09.758Z,-5.69
2022-11-19T22:08:40.277Z,-5.64
2022-11-19T22:11:27.438Z,-5.90
2022-11-19T22:13:59.198Z,-6.10
2022-11-19T22:16:27.762Z,-6.08
2022-11-19T22:18:55.277Z,-6.06
2022-11-19T22:21:22.758Z,-6.14
2022-11-19T22:24:00.062Z,-6.20
2022-11-19T22:26:27.679Z,-6.12
2022-11-19T22:28:56.838Z,-6.19
2022-11-19T22:31:25.295Z,-6.34
2022-11-19T22:33:54.105Z,-6.37
2022-11-19T22:36:22.562Z,-6.29
2022-11-19T22:38:51.639Z,-6.00
2022-11-19T22:41:21.159Z,-6.07
2022-11-19T22:43:49.518Z,-6.06
2022-11-19T22:46:17.878Z,-5.97
2022-11-19T22:48:45.319Z,-5.96
2022-11-19T22:51:21.958Z,-6.16
2022-11-19T22:53:51.799Z,-6.45
2022-11-19T22:56:22.319Z,-6.39
2022-11-19T22:58:50.208Z,-6.54
2022-11-19T23:01:17.854Z,-6.46
2022-11-19T23:03:47.766Z,-6.54
2022-11-19T23:06:15.806Z,-6.69
2022-11-19T23:08:44.492Z,-6.78
2022-11-19T23:11:13.717Z,-6.88
2022-11-19T23:13:42.998Z,-6.79
2022-11-19T23:16:14.049Z,-6.88
2022-11-19T23:18:47.038Z,-6.96
2022-11-19T23:21:15.854Z,-6.89
2022-11-19T23:23:43.478Z,-6.86
2022-11-19T23:26:21.720Z,-6.69
2022-11-19T23:28:49.518Z,-6.51
2022-11-19T23:31:31.941Z,-6.59
2022-11-19T23:34:06.369Z,-6.34
2022-11-19T23:36:37.131Z,-6.31
2022-11-19T23:39:05.719Z,-6.24
2022-11-19T23:41:34.637Z,-6.29
2022-11-19T23:44:03.160Z,-6.40
2022-11-19T23:46:37.045Z,-6.19
2022-11-19T23:49:05.895Z,-6.11
2022-11-19T23:51:40.408Z,-6.06
2022-11-19T23:54:08.757Z,-6.41
2022-11-19T23:56:36.618Z,-6.32
2022-11-19T23:59:06.730Z,-6.37
